Time;durP1;ratioP1;P1;durP2;ratioP2;P2;SDS_P1;SDS_P2;PMS_P1;PMS_P2;Temp;Humidity;BMP_temperature;BMP_pressure;BME280_temperature;BME280_humidity;BME280_pressure;Samples;Min_cycle;Max_cycle;Signal;HPM_P1;HPM_P2
2021/01/27 00:02:48;;;;;;;30.52;17.27;;;;;;;1.30;70.26;99435.41;147136;1148;104450;-74
2021/01/27 00:05:52;;;;;;;30.17;16.97;;;;;;;1.31;69.97;99430.98;147113;1148;104915;-76
2021/01/27 00:08:55;;;;;;;26.17;13.68;;;;;;;1.28;69.31;99423.34;147148;1148;104588;-76
2021/01/27 00:11:59;;;;;;;31.33;17.40;;;;;;;1.27;69.87;99427.77;147136;1148;104568;-75
2021/01/27 00:15:04;;;;;;;29.80;16.20;;;;;;;1.30;69.26;99435.41;147074;1148;104473;-75
2021/01/27 00:18:10;;;;;;;29.63;16.67;;;;;;;1.35;69.74;99435.91;146958;1146;104553;-77
2021/01/27 00:21:13;;;;;;;33.38;17.65;;;;;;;1.38;69.73;99437.47;147242;1148;104542;-80
2021/01/27 00:24:18;;;;;;;27.35;14.85;;;;;;;1.32;69.74;99437.92;146926;1148;104548;-79
2021/01/27 00:27:21;;;;;;;31.73;17.62;;;;;;;1.22;69.48;99440.41;147604;1147;104487;-78
2021/01/27 00:30:26;;;;;;;30.25;16.10;;;;;;;1.22;70.16;99439.57;147598;1147;104478;-79
2021/01/27 00:33:29;;;;;;;49.33;24.05;;;;;;;1.27;70.60;99427.77;147630;1146;104569;-79
2021/01/27 00:36:32;;;;;;;42.88;21.57;;;;;;;1.27;70.81;99435.66;147690;1147;104458;-80
2021/01/27 00:39:36;;;;;;;35.00;18.05;;;;;;;1.29;71.13;99432.89;147473;1146;104543;-78
2021/01/27 00:42:39;;;;;;;32.08;17.27;;;;;;;1.33;70.49;99439.62;147482;1147;104438;-79
2021/01/27 00:45:42;;;;;;;36.03;20.70;;;;;;;1.34;70.91;99439.48;147752;1146;104544;-75
2021/01/27 00:48:48;;;;;;;31.17;18.95;;;;;;;1.36;70.71;99423.59;147693;1146;104858;-76
2021/01/27 00:51:51;;;;;;;29.70;16.12;;;;;;;1.32;70.80;99437.92;147642;1146;104538;-76
2021/01/27 00:54:55;;;;;;;35.23;19.50;;;;;;;1.33;70.01;99431.73;147607;1147;104524;-76
2021/01/27 00:57:59;;;;;;;33.42;17.95;;;;;;;1.33;70.01;99427.31;147724;1147;104551;-76
2021/01/27 01:01:03;;;;;;;33.77;19.17;;;;;;;1.35;70.81;99414.05;147671;1146;104550;-76
2021/01/27 01:04:07;;;;;;;31.15;17.05;;;;;;;1.33;70.95;99416.80;147722;1147;104546;-76
2021/01/27 01:07:10;;;;;;;31.57;17.95;;;;;;;1.34;70.65;99428.13;147537;1146;104502;-76
2021/01/27 01:10:18;;;;;;;35.05;18.85;;;;;;;1.32;71.01;99427.41;147611;1147;104723;-77
2021/01/27 01:13:25;;;;;;;34.43;18.52;;;;;;;1.38;70.25;99425.16;147440;1146;104486;-78
2021/01/27 01:16:28;;;;;;;32.30;17.12;;;;;;;1.45;69.95;99425.55;147588;1147;104542;-77
2021/01/27 01:19:31;;;;;;;32.13;18.27;;;;;;;1.48;70.39;99427.09;147465;1146;104545;-77
2021/01/27 01:22:34;;;;;;;30.48;18.12;;;;;;;1.49;70.69;99424.36;147694;1147;104487;-77
2021/01/27 01:25:37;;;;;;;30.65;17.90;;;;;;;1.42;70.68;99423.14;147690;1147;104624;-76
2021/01/27 01:28:40;;;;;;;32.67;17.55;;;;;;;1.33;70.49;99427.31;147586;1147;104626;-76
2021/01/27 01:31:43;;;;;;;29.63;16.23;;;;;;;1.26;70.59;99430.50;147607;1146;104457;-77
2021/01/27 01:34:47;;;;;;;37.43;19.90;;;;;;;1.27;70.92;99433.02;147678;1146;104950;-77
2021/01/27 01:37:50;;;;;;;34.60;18.67;;;;;;;1.30;71.04;99424.06;147717;1146;104563;-76
2021/01/27 01:40:56;;;;;;;30.40;15.88;;;;;;;1.33;70.67;99431.73;147686;1146;104481;-79
2021/01/27 01:43:59;;;;;;;32.78;18.45;;;;;;;1.33;70.75;99423.84;147680;1146;104547;-78
2021/01/27 01:47:02;;;;;;;32.57;18.30;;;;;;;1.35;70.78;99432.45;147578;1146;104528;-78
2021/01/27 01:50:07;;;;;;;30.57;17.07;;;;;;;1.40;70.47;99437.36;147462;1147;104551;-79
2021/01/27 01:53:12;;;;;;;31.82;17.50;;;;;;;1.38;70.66;99426.95;147768;1147;104464;-79
2021/01/27 01:56:20;;;;;;;27.80;14.97;;;;;;;1.33;70.45;99421.22;147351;1146;104620;-76
2021/01/27 01:59:24;;;;;;;31.33;17.52;;;;;;;1.26;70.31;99425.25;147755;1147;104564;-77
2021/01/27 02:02:28;;;;;;;28.40;16.27;;;;;;;1.23;70.82;99421.04;147612;1146;104538;-75
2021/01/27 02:05:32;;;;;;;31.97;18.40;;;;;;;1.22;71.00;99432.52;147671;1147;104491;-74
2021/01/27 02:08:38;;;;;;;32.15;17.42;;;;;;;1.20;70.72;99425.71;147781;1147;104472;-74
2021/01/27 02:12:06;;;;;;;31.25;18.32;;;;;;;1.19;70.54;99422.22;147533;1147;104706;-74
2021/01/27 02:15:23;;;;;;;29.25;16.70;;;;;;;1.26;71.10;99415.56;147682;1146;104501;-78
2021/01/27 02:18:35;;;;;;;25.43;15.87;;;;;;;1.25;70.31;99428.81;147724;1146;104458;-77
2021/01/27 02:22:02;;;;;;;28.60;16.32;;;;;;;1.25;71.21;99420.93;147713;1146;104547;-75
2021/01/27 02:25:41;;;;;;;28.23;17.37;;;;;;;1.25;70.83;99416.53;147548;1146;104555;-77
2021/01/27 02:29:14;;;;;;;25.37;13.05;;;;;;;1.23;71.03;99425.47;147331;1147;104636;-78
2021/01/27 02:32:54;;;;;;;27.27;15.98;;;;;;;1.22;70.94;99429.89;147402;1147;104489;-78
2021/01/27 02:36:06;;;;;;;36.42;17.00;;;;;;;1.23;71.05;99430.72;147617;1146;104588;-78
2021/01/27 02:39:14;;;;;;;25.05;13.50;;;;;;;1.23;70.45;99433.34;147487;1147;104538;-77
2021/01/27 02:42:22;;;;;;;26.65;14.90;;;;;;;1.22;70.42;99427.27;147535;1147;104472;-74
2021/01/27 02:45:30;;;;;;;27.37;14.95;;;;;;;1.22;70.32;99432.52;147714;1146;104605;-75
2021/01/27 02:48:39;;;;;;;25.40;14.80;;;;;;;1.13;70.63;99423.52;147759;1146;104547;-73
2021/01/27 02:51:47;;;;;;;22.43;13.87;;;;;;;1.10;70.83;99434.27;147583;1146;104458;-74
2021/01/27 02:54:56;;;;;;;22.25;12.78;;;;;;;1.11;71.09;99429.84;147662;1147;104532;-75
2021/01/27 02:58:05;;;;;;;23.30;13.27;;;;;;;1.16;70.72;99432.98;147573;1146;104595;-74
2021/01/27 03:01:16;;;;;;;22.85;12.68;;;;;;;1.17;70.73;99432.88;147679;1146;104626;-74
2021/01/27 03:04:23;;;;;;;22.00;12.60;;;;;;;1.19;70.70;99437.98;147730;1145;104538;-76
2021/01/27 03:07:29;;;;;;;19.90;11.25;;;;;;;1.17;70.43;99430.24;147666;1147;104463;-77
2021/01/27 03:10:39;;;;;;;17.92;9.68;;;;;;;1.13;69.95;99435.81;147701;1147;104551;-77
2021/01/27 03:13:46;;;;;;;20.30;11.88;;;;;;;1.08;69.69;99441.42;147593;1147;104473;-77
2021/01/27 03:16:55;;;;;;;18.02;10.80;;;;;;;1.06;69.93;99452.98;147435;1147;104636;-77
2021/01/27 03:20:05;;;;;;;20.60;10.27;;;;;;;1.04;69.77;99436.48;147718;1146;104537;-77
2021/01/27 03:23:15;;;;;;;16.82;9.78;;;;;;;1.08;69.41;99444.05;147670;1146;104542;-77
2021/01/27 03:26:25;;;;;;;15.13;9.03;;;;;;;1.07;68.79;99441.53;147746;1147;104545;-77
2021/01/27 03:29:40;;;;;;;34.58;17.05;;;;;;;1.05;70.11;99440.81;147760;1147;104553;-75
2021/01/27 03:32:51;;;;;;;52.38;25.75;;;;;;;1.06;69.54;99432.82;147586;1146;104642;-76
2021/01/27 03:35:58;;;;;;;15.28;7.53;;;;;;;1.10;69.54;99442.15;147507;1146;104501;-75
2021/01/27 03:39:03;;;;;;;15.87;8.80;;;;;;;1.14;69.16;99446.22;147617;1147;104583;-76
2021/01/27 03:42:14;;;;;;;12.45;7.80;;;;;;;1.16;68.86;99441.69;147744;1147;104559;-74
2021/01/27 03:45:21;;;;;;;11.40;7.30;;;;;;;1.21;68.39;99451.02;147521;1146;104883;-75
2021/01/27 03:48:31;;;;;;;25.45;12.90;;;;;;;1.23;68.60;99449.11;147651;1147;104516;-77
2021/01/27 03:51:38;;;;;;;10.63;6.42;;;;;;;1.14;69.31;99451.48;147818;1146;104444;-76
2021/01/27 03:54:47;;;;;;;21.20;10.73;;;;;;;1.08;68.73;99456.33;147793;1147;104591;-75
2021/01/27 03:58:02;;;;;;;22.82;11.95;;;;;;;1.04;68.65;99450.48;147778;1146;104549;-73
2021/01/27 04:01:08;;;;;;;11.77;6.90;;;;;;;1.03;69.59;99450.59;147762;1147;104477;-72
2021/01/27 04:04:11;;;;;;;15.75;8.80;;;;;;;1.04;69.46;99455.74;147782;1147;104542;-73
2021/01/27 04:07:14;;;;;;;16.57;9.13;;;;;;;1.03;68.94;99454.05;147796;1145;105024;-71
2021/01/27 04:10:18;;;;;;;14.73;8.50;;;;;;;1.00;69.10;99454.26;147847;1146;104553;-73
2021/01/27 04:13:21;;;;;;;17.43;10.33;;;;;;;0.99;68.46;99468.36;147572;1146;104550;-73
2021/01/27 04:16:25;;;;;;;13.50;7.00;;;;;;;0.99;68.98;99473.61;147731;1145;104553;-75
2021/01/27 04:19:28;;;;;;;19.55;10.38;;;;;;;1.04;68.58;99458.37;147755;1147;104616;-74
2021/01/27 04:22:31;;;;;;;13.97;7.50;;;;;;;1.06;68.29;99458.23;147808;1147;104605;-72
2021/01/27 04:25:34;;;;;;;30.50;14.35;;;;;;;1.06;68.49;99466.97;147766;1147;104439;-73
2021/01/27 04:28:37;;;;;;;14.18;7.33;;;;;;;1.04;69.08;99460.13;147720;1145;104932;-74
2021/01/27 04:31:40;;;;;;;10.43;6.30;;;;;;;1.04;68.64;99452.25;147785;1146;104482;-73
2021/01/27 04:34:44;;;;;;;14.20;7.97;;;;;;;1.06;68.57;99459.09;147779;1147;104642;-73
2021/01/27 04:37:47;;;;;;;9.30;5.80;;;;;;;1.06;69.10;99459.09;147789;1146;104497;-73
2021/01/27 04:40:55;;;;;;;12.00;7.10;;;;;;;1.08;68.45;99451.08;147760;1147;104479;-75
2021/01/27 04:43:58;;;;;;;12.15;6.85;;;;;;;1.15;68.91;99452.31;147794;1147;104506;-73
2021/01/27 04:47:08;;;;;;;17.95;8.73;;;;;;;1.14;67.82;99461.98;147876;1147;104531;-76
2021/01/27 04:50:18;;;;;;;14.00;7.62;;;;;;;1.07;68.86;99458.13;147828;1147;104653;-73
2021/01/27 04:53:43;;;;;;;14.55;7.95;;;;;;;1.07;68.87;99460.75;147751;1147;104647;-76
2021/01/27 04:57:16;;;;;;;15.10;8.23;;;;;;;1.12;69.39;99452.55;147393;1146;104465;-73
2021/01/27 05:00:40;;;;;;;13.90;8.15;;;;;;;1.12;68.96;99453.38;147722;1146;104460;-74
2021/01/27 05:04:17;;;;;;;16.55;8.63;;;;;;;1.12;69.48;99457.80;147785;1147;104394;-73
2021/01/27 05:07:27;;;;;;;18.95;10.25;;;;;;;1.15;69.01;99458.39;147519;1147;104702;-73
2021/01/27 05:10:37;;;;;;;41.65;17.77;;;;;;;1.13;68.49;99462.92;147851;1147;104504;-75
2021/01/27 05:13:44;;;;;;;30.43;15.10;;;;;;;1.11;69.21;99464.83;147749;1147;104393;-73
2021/01/27 05:16:51;;;;;;;38.88;24.12;;;;;;;1.15;68.90;99458.39;147719;1147;104486;-74
2021/01/27 05:19:54;;;;;;;28.47;16.60;;;;;;;1.10;69.44;99460.54;147764;1146;104509;-75
2021/01/27 05:22:58;;;;;;;17.17;10.23;;;;;;;1.11;69.00;99458.74;147782;1147;104549;-76
2021/01/27 05:26:08;;;;;;;24.52;12.43;;;;;;;1.09;69.14;99461.48;147806;1147;104546;-76
2021/01/27 05:29:18;;;;;;;22.77;11.53;;;;;;;1.09;69.01;99464.11;147784;1147;104549;-72
2021/01/27 05:32:22;;;;;;;17.73;10.80;;;;;;;1.07;69.06;99465.17;147474;1147;104547;-73
2021/01/27 05:35:29;;;;;;;27.85;13.72;;;;;;;1.05;69.15;99464.45;147842;1146;104525;-74
2021/01/27 05:38:33;;;;;;;21.17;10.90;;;;;;;1.05;68.88;99461.83;147782;1147;104711;-73
2021/01/27 05:41:36;;;;;;;19.50;9.43;;;;;;;1.02;69.09;99478.66;147829;1147;104557;-74
2021/01/27 05:44:39;;;;;;;18.37;9.28;;;;;;;1.06;69.28;99481.88;147920;1146;104492;-74
2021/01/27 05:47:43;;;;;;;17.43;9.13;;;;;;;1.07;69.55;99468.63;147741;1147;104531;-75
2021/01/27 05:50:46;;;;;;;15.33;7.70;;;;;;;1.09;68.28;99489.55;147755;1147;104552;-74
2021/01/27 05:53:49;;;;;;;18.23;9.30;;;;;;;0.99;69.19;99476.24;147748;1146;104588;-75
2021/01/27 05:56:54;;;;;;;14.87;8.00;;;;;;;0.98;68.79;99479.80;147771;1147;104550;-73
2021/01/27 06:00:14;;;;;;;19.07;9.48;;;;;;;0.99;69.24;99476.24;147798;1147;104450;-72
2021/01/27 06:03:24;;;;;;;19.40;10.70;;;;;;;1.02;68.63;99478.66;147811;1147;104957;-74
2021/01/27 06:06:29;;;;;;;14.75;7.97;;;;;;;1.02;69.04;99489.17;147494;1147;104460;-72
2021/01/27 06:09:41;;;;;;;15.98;8.98;;;;;;;0.98;68.18;99487.69;147377;1147;104614;-72
2021/01/27 06:12:44;;;;;;;20.20;11.33;;;;;;;0.92;68.86;99488.96;147755;1147;104585;-74
2021/01/27 06:15:48;;;;;;;15.00;8.90;;;;;;;0.94;69.06;99494.11;147585;1147;104492;-73
2021/01/27 06:18:51;;;;;;;14.58;8.73;;;;;;;0.89;68.60;99491.83;147211;1147;104442;-74
2021/01/27 06:22:21;;;;;;;18.12;11.15;;;;;;;0.89;68.56;99491.00;147634;1147;104509;-74
2021/01/27 06:25:34;;;;;;;26.85;13.65;;;;;;;0.87;69.16;99493.73;147746;1147;104599;-75
2021/01/27 06:29:06;;;;;;;16.23;7.70;;;;;;;0.87;68.79;99498.16;147800;1147;104556;-73
2021/01/27 06:32:27;;;;;;;18.65;10.13;;;;;;;0.84;68.56;99508.86;147742;1147;104471;-74
2021/01/27 06:35:37;;;;;;;13.78;7.85;;;;;;;0.90;68.85;99505.80;147770;1147;104469;-72
2021/01/27 06:39:07;;;;;;;14.63;7.53;;;;;;;0.93;69.03;99513.47;147729;1146;104553;-73
2021/01/27 06:42:37;;;;;;;12.28;7.53;;;;;;;0.96;68.47;99506.21;147789;1147;104636;-74
2021/01/27 06:45:55;;;;;;;11.88;7.67;;;;;;;1.04;68.70;99505.66;147748;1146;104542;-74
2021/01/27 06:49:33;;;;;;;12.85;6.40;;;;;;;1.02;68.35;99515.44;147722;1148;104553;-72
2021/01/27 06:53:08;;;;;;;13.03;6.95;;;;;;;1.03;68.58;99514.47;147642;1147;104481;-73
2021/01/27 06:56:28;;;;;;;13.20;7.03;;;;;;;1.09;68.40;99521.08;147745;1147;104495;-72
2021/01/27 07:00:15;;;;;;;10.88;6.05;;;;;;;1.02;68.29;99528.58;147788;1147;104544;-74
2021/01/27 07:03:54;;;;;;;10.63;6.00;;;;;;;0.95;68.37;99525.53;147844;1147;104598;-74
2021/01/27 07:07:19;;;;;;;10.30;5.77;;;;;;;0.91;68.63;99524.08;147905;1147;104476;-73
2021/01/27 07:10:51;;;;;;;17.80;9.05;;;;;;;0.92;68.43;99528.36;147838;1147;104588;-73
2021/01/27 07:14:36;;;;;;;15.25;8.93;;;;;;;0.94;68.36;99528.26;147792;1146;104498;-73
2021/01/27 07:18:11;;;;;;;14.67;7.47;;;;;;;0.98;68.57;99530.58;147383;1147;104572;-75
2021/01/27 07:21:18;;;;;;;10.10;6.08;;;;;;;1.01;68.09;99529.51;147640;1147;104589;-74
2021/01/27 07:24:25;;;;;;;11.45;6.60;;;;;;;1.01;68.51;99528.67;147783;1146;104461;-75
2021/01/27 07:27:31;;;;;;;11.50;6.15;;;;;;;0.99;69.06;99528.78;147862;1146;104545;-74
2021/01/27 07:30:44;;;;;;;13.32;7.08;;;;;;;1.03;68.56;99527.61;147776;1147;104493;-73
2021/01/27 07:33:54;;;;;;;26.35;12.37;;;;;;;1.01;68.72;99528.67;147476;1147;104481;-71
2021/01/27 07:37:09;;;;;;;15.45;8.10;;;;;;;1.06;67.99;99531.79;147259;1147;104594;-74
2021/01/27 07:40:19;;;;;;;74.57;38.73;;;;;;;1.10;68.46;99534.11;147530;1146;104551;-74
2021/01/27 07:43:27;;;;;;;15.05;8.03;;;;;;;1.06;68.68;99531.79;147751;1147;104466;-74
2021/01/27 07:46:38;;;;;;;385.07;174.85;;;;;;;1.05;68.23;99536.22;147796;1147;104497;-74
2021/01/27 07:49:49;;;;;;;84.85;36.88;;;;;;;1.16;68.96;99548.59;147700;1147;104620;-72
2021/01/27 07:53:06;;;;;;;613.63;315.43;;;;;;;1.16;68.62;99543.34;147690;1146;104560;-74
2021/01/27 07:56:17;;;;;;;24.27;11.43;;;;;;;1.12;67.96;99536.63;147414;1147;104460;-73
2021/01/27 07:59:28;;;;;;;22.80;12.13;;;;;;;1.09;68.20;99542.09;147526;1148;104538;-75
2021/01/27 08:02:36;;;;;;;68.28;39.40;;;;;;;1.15;68.85;99547.73;147247;1146;104468;-72
2021/01/27 08:05:42;;;;;;;15.93;8.98;;;;;;;1.14;68.03;99543.44;147585;1146;104460;-74
2021/01/27 08:08:53;;;;;;;134.20;70.78;;;;;;;1.14;68.40;99546.07;147702;1147;104523;-73
2021/01/27 08:12:13;;;;;;;32.00;15.90;;;;;;;1.18;68.01;99547.52;147397;1146;104551;-73
2021/01/27 08:15:40;;;;;;;360.88;207.25;;;;;;;1.22;68.61;99553.40;147521;1146;104541;-72
2021/01/27 08:19:24;;;;;;;221.50;114.03;;;;;;;1.25;68.66;99547.94;147633;1146;104832;-73
2021/01/27 08:22:48;;;;;;;29.90;15.75;;;;;;;1.27;68.54;99558.31;147325;1146;104516;-73
2021/01/27 08:25:56;;;;;;;26.37;15.20;;;;;;;1.20;68.23;99567.61;147831;1147;104969;-73
2021/01/27 08:29:09;;;;;;;82.80;38.97;;;;;;;1.13;68.48;99548.80;147750;1146;104550;-73
2021/01/27 08:32:30;;;;;;;121.92;61.80;;;;;;;1.23;68.69;99554.23;147663;1147;104549;-74
2021/01/27 08:36:03;;;;;;;44.83;22.07;;;;;;;1.26;67.87;99564.53;147843;1147;104553;-72
2021/01/27 08:39:12;;;;;;;21.25;10.65;;;;;;;1.20;68.26;99559.73;147810;1147;104548;-72
2021/01/27 08:42:26;;;;;;;15.58;8.28;;;;;;;1.15;68.38;99562.67;147787;1147;104553;-73
2021/01/27 08:45:32;;;;;;;36.08;18.67;;;;;;;1.17;68.21;99569.52;147765;1148;104461;-74
2021/01/27 08:48:51;;;;;;;53.63;25.12;;;;;;;1.25;68.82;99583.87;147789;1147;104489;-72
2021/01/27 08:51:54;;;;;;;16.23;8.53;;;;;;;1.22;68.35;99582.31;147653;1146;104917;-75
2021/01/27 08:54:58;;;;;;;15.00;7.60;;;;;;;1.17;68.33;99582.65;147178;1146;104601;-73
2021/01/27 08:58:27;;;;;;;27.02;14.58;;;;;;;1.20;68.96;99578.12;147420;1147;104592;-74
2021/01/27 09:02:00;;;;;;;55.08;24.63;;;;;;;1.35;68.46;99590.16;147436;1147;104550;-74
2021/01/27 09:05:11;;;;;;;149.18;47.53;;;;;;;1.40;68.31;99595.91;146576;1150;104671;-73
2021/01/27 09:08:32;;;;;;;49.98;19.17;;;;;;;1.30;68.20;99587.84;147208;1147;104473;-72
2021/01/27 09:11:36;;;;;;;31.75;18.62;;;;;;;1.22;67.60;99591.98;147296;1146;104550;-73
2021/01/27 09:14:51;;;;;;;16.42;9.23;;;;;;;1.15;67.75;99594.20;147318;1146;104569;-74
2021/01/27 09:17:56;;;;;;;169.37;52.40;;;;;;;1.13;68.12;99591.67;147191;1147;104455;-72
2021/01/27 09:21:06;;;;;;;58.30;25.60;;;;;;;1.18;68.25;99586.94;147176;1146;104476;-74
2021/01/27 09:24:20;;;;;;;23.45;11.93;;;;;;;1.22;67.85;99605.13;147580;1145;104529;-74
2021/01/27 09:27:27;;;;;;;139.70;45.17;;;;;;;1.12;68.05;99599.69;147159;1146;104627;-73
2021/01/27 09:30:30;;;;;;;36.00;19.17;;;;;;;1.14;68.72;99593.37;147243;1147;104529;-74
2021/01/27 09:33:34;;;;;;;30.62;14.50;;;;;;;1.12;68.06;99597.89;147146;1147;104476;-74
2021/01/27 09:36:37;;;;;;;73.42;29.50;;;;;;;1.22;68.17;99594.62;147262;1147;104580;-72
2021/01/27 09:39:44;;;;;;;24.30;12.45;;;;;;;1.32;67.88;99595.63;147512;1146;104478;-72
2021/01/27 09:42:48;;;;;;;29.47;13.97;;;;;;;1.32;68.01;99593.00;147157;1146;104726;-74
2021/01/27 09:45:52;;;;;;;61.15;31.10;;;;;;;1.33;68.32;99598.15;147319;1147;104488;-72
2021/01/27 09:48:58;;;;;;;133.12;56.08;;;;;;;1.37;68.02;99601.41;147191;1146;104478;-73
2021/01/27 09:52:03;;;;;;;38.27;18.00;;;;;;;1.35;68.79;99604.13;147172;1146;104503;-74
2021/01/27 09:55:11;;;;;;;36.63;17.05;;;;;;;1.38;68.46;99597.81;147231;1147;104865;-74
2021/01/27 09:58:14;;;;;;;111.45;38.00;;;;;;;1.41;67.91;99594.97;147223;1147;104639;-72
2021/01/27 10:01:20;;;;;;;128.93;45.35;;;;;;;1.49;68.46;99597.04;147147;1146;104550;-73
2021/01/27 10:04:35;;;;;;;451.18;153.50;;;;;;;1.58;68.23;99591.13;147669;1146;104570;-72
2021/01/27 10:07:40;;;;;;;60.95;22.40;;;;;;;1.66;67.86;99596.65;147180;1147;104451;-73
2021/01/27 10:10:44;;;;;;;236.63;78.00;;;;;;;1.65;67.41;99596.75;147355;1147;104500;-73
2021/01/27 10:13:47;;;;;;;499.37;202.87;;;;;;;1.78;68.04;99586.19;147402;1147;104927;-73
2021/01/27 10:16:54;;;;;;;79.75;31.73;;;;;;;1.92;68.08;99589.45;147724;1147;104595;-74
2021/01/27 10:20:18;;;;;;;90.40;33.70;;;;;;;1.90;67.61;99595.78;147469;1147;104508;-72
2021/01/27 10:23:37;;;;;;;34.80;16.95;;;;;;;1.85;67.87;99593.51;147696;1146;104529;-74
2021/01/27 10:26:42;;;;;;;23.60;12.50;;;;;;;1.84;66.64;99601.51;147729;1147;104503;-74
2021/01/27 10:29:45;;;;;;;18.05;11.03;;;;;;;1.79;67.80;99593.97;147759;1146;104544;-73
2021/01/27 10:32:48;;;;;;;21.17;12.23;;;;;;;1.77;68.13;99595.84;147814;1147;104554;-73
2021/01/27 10:35:51;;;;;;;16.32;9.55;;;;;;;1.85;67.88;99596.14;147396;1146;104508;-74
2021/01/27 10:39:24;;;;;;;18.80;11.22;;;;;;;1.93;67.54;99593.77;147154;1147;104445;-73
2021/01/27 10:42:35;;;;;;;20.35;10.63;;;;;;;2.04;66.99;99598.24;147170;1146;104926;-73
2021/01/27 10:45:40;;;;;;;14.65;8.93;;;;;;;1.94;66.63;99592.83;147144;1147;104617;-72
2021/01/27 10:48:44;;;;;;;28.25;15.35;;;;;;;1.86;67.17;99605.69;147339;1147;104543;-74
2021/01/27 10:51:47;;;;;;;18.25;10.70;;;;;;;1.86;67.10;99599.59;147714;1147;104451;-74
2021/01/27 10:54:54;;;;;;;28.23;14.95;;;;;;;1.94;67.22;99594.59;147683;1147;104549;-73
2021/01/27 10:58:04;;;;;;;36.83;18.12;;;;;;;2.00;67.01;99595.94;147374;1147;104476;-73
2021/01/27 11:01:07;;;;;;;441.25;198.13;;;;;;;2.02;67.65;99594.02;147677;1147;104884;-74
2021/01/27 11:04:10;;;;;;;68.52;28.15;;;;;;;2.04;66.79;99586.85;147689;1148;104594;-74
2021/01/27 11:07:14;;;;;;;120.80;41.83;;;;;;;2.02;66.65;99604.55;147729;1147;104493;-75
2021/01/27 11:10:18;;;;;;;42.40;16.65;;;;;;;1.96;66.69;99611.97;147725;1147;104501;-74
2021/01/27 11:13:21;;;;;;;74.77;25.92;;;;;;;1.90;66.57;99599.25;147713;1148;104484;-73
2021/01/27 11:16:24;;;;;;;35.38;13.55;;;;;;;1.93;66.61;99601.66;147145;1147;104466;-75
2021/01/27 11:19:27;;;;;;;70.05;25.30;;;;;;;1.94;66.63;99602.49;147473;1147;104553;-74
2021/01/27 11:22:30;;;;;;;22.27;10.80;;;;;;;1.98;66.26;99606.56;147637;1147;104515;-74
2021/01/27 11:25:34;;;;;;;20.77;10.75;;;;;;;1.92;66.32;99614.92;147720;1148;104538;-75
2021/01/27 11:28:37;;;;;;;35.48;15.72;;;;;;;1.98;66.33;99609.20;147820;1146;104477;-72
2021/01/27 11:31:40;;;;;;;17.32;8.20;;;;;;;1.82;65.84;99606.88;147678;1147;104471;-76
2021/01/27 11:34:43;;;;;;;25.37;12.40;;;;;;;1.78;66.04;99623.84;147258;1146;104553;-75
2021/01/27 11:37:47;;;;;;;27.10;13.60;;;;;;;1.69;65.87;99603.47;147864;1147;104542;-74
2021/01/27 11:40:51;;;;;;;18.15;8.75;;;;;;;1.71;66.04;99622.60;147443;1147;104550;-74
2021/01/27 11:43:54;;;;;;;224.73;98.80;;;;;;;1.75;66.65;99609.13;147379;1146;104495;-72
2021/01/27 11:46:57;;;;;;;238.95;124.90;;;;;;;1.85;66.70;99605.80;147304;1147;104476;-72
2021/01/27 11:50:01;;;;;;;137.30;56.33;;;;;;;1.86;66.06;99613.58;147265;1147;104547;-74
2021/01/27 11:53:04;;;;;;;95.17;36.40;;;;;;;1.86;66.31;99613.58;147175;1147;104521;-72
2021/01/27 11:56:08;;;;;;;35.85;15.20;;;;;;;1.89;66.22;99613.37;147390;1146;104550;-72
2021/01/27 11:59:12;;;;;;;39.40;15.97;;;;;;;1.87;65.98;99606.55;147380;1147;104477;-72
2021/01/27 12:02:16;;;;;;;34.73;16.23;;;;;;;1.88;65.86;99619.57;147174;1147;104618;-71
2021/01/27 12:05:20;;;;;;;51.48;24.85;;;;;;;1.95;66.07;99614.70;147344;1147;104442;-72
2021/01/27 12:08:23;;;;;;;17.95;9.98;;;;;;;1.91;65.32;99616.72;147449;1147;104503;-72
2021/01/27 12:11:26;;;;;;;36.10;16.95;;;;;;;1.86;66.70;99616.22;147627;1148;104477;-72
2021/01/27 12:14:29;;;;;;;47.73;26.93;;;;;;;1.85;66.48;99611.06;147719;1147;104562;-72
2021/01/27 12:17:33;;;;;;;25.75;16.02;;;;;;;1.88;66.24;99611.67;147624;1147;104543;-70
2021/01/27 12:20:37;;;;;;;22.40;12.13;;;;;;;1.76;65.81;99609.96;147737;1147;104554;-71
2021/01/27 12:23:40;;;;;;;31.75;16.12;;;;;;;1.71;66.69;99612.08;147565;1146;104559;-72
2021/01/27 12:26:43;;;;;;;35.48;15.72;;;;;;;1.63;66.53;99610.02;147248;1147;104450;-70
2021/01/27 12:29:47;;;;;;;29.10;15.25;;;;;;;1.65;66.52;99608.11;147353;1147;104495;-70
2021/01/27 12:32:50;;;;;;;37.90;16.23;;;;;;;1.68;66.17;99615.78;147229;1147;104695;-72
2021/01/27 12:35:53;;;;;;;63.92;24.18;;;;;;;1.74;66.97;99606.61;147724;1147;104602;-71
2021/01/27 12:38:56;;;;;;;42.65;19.25;;;;;;;1.86;66.27;99613.58;147633;1147;104504;-71
2021/01/27 12:41:59;;;;;;;45.48;20.88;;;;;;;1.89;66.21;99610.73;146979;1146;104480;-70
2021/01/27 12:45:03;;;;;;;31.80;17.35;;;;;;;1.87;66.16;99611.81;147396;1147;104496;-70
2021/01/27 12:48:07;;;;;;;23.22;12.63;;;;;;;1.83;66.38;99621.72;147318;1147;104553;-72
2021/01/27 12:51:10;;;;;;;23.10;12.60;;;;;;;1.86;66.49;99610.13;147486;1147;104657;-70
2021/01/27 12:54:13;;;;;;;20.00;10.13;;;;;;;1.90;65.56;99616.83;147212;1146;104562;-71
2021/01/27 12:57:16;;;;;;;21.40;12.78;;;;;;;1.85;65.17;99613.69;147397;1147;104476;-71
2021/01/27 13:00:23;;;;;;;31.97;15.30;;;;;;;1.80;66.03;99629.83;147040;1147;104553;-71
2021/01/27 13:03:27;;;;;;;16.73;9.38;;;;;;;1.79;65.46;99622.91;147450;1147;104916;-70
2021/01/27 13:06:30;;;;;;;17.30;8.55;;;;;;;1.87;65.67;99633.69;147618;1147;104476;-70
2021/01/27 13:09:33;;;;;;;15.00;7.17;;;;;;;1.88;65.95;99630.09;147612;1147;104451;-71
2021/01/27 13:12:37;;;;;;;27.10;11.88;;;;;;;1.85;65.05;99625.08;147640;1147;104556;-70
2021/01/27 13:15:41;;;;;;;17.77;9.30;;;;;;;1.95;64.71;99633.95;147646;1147;104566;-71
2021/01/27 13:18:44;;;;;;;15.43;8.47;;;;;;;1.95;64.28;99638.39;147183;1147;104574;-70
2021/01/27 13:21:48;;;;;;;139.57;65.70;;;;;;;1.94;65.31;99634.92;147591;1147;104563;-70
2021/01/27 13:24:51;;;;;;;26.73;13.40;;;;;;;1.95;64.54;99626.06;147217;1146;104496;-70
2021/01/27 13:27:54;;;;;;;103.83;35.25;;;;;;;1.99;64.04;99641.64;147162;1148;104553;-72
2021/01/27 13:30:57;;;;;;;51.50;23.18;;;;;;;2.00;64.76;99645.93;147717;1146;104601;-70
2021/01/27 13:34:01;;;;;;;14.75;6.95;;;;;;;1.86;64.24;99632.00;147101;1147;104790;-70
2021/01/27 13:37:04;;;;;;;28.47;14.03;;;;;;;1.74;64.48;99646.06;147496;1146;104473;-71
2021/01/27 13:40:09;;;;;;;40.28;17.35;;;;;;;1.73;63.15;99655.75;147458;1147;104556;-71
2021/01/27 13:43:12;;;;;;;27.58;13.28;;;;;;;1.70;63.57;99649.87;147235;1146;104492;-72
2021/01/27 13:46:16;;;;;;;12.30;6.13;;;;;;;1.68;63.98;99649.14;147549;1147;104551;-71
2021/01/27 13:49:19;;;;;;;21.23;10.30;;;;;;;1.67;64.37;99644.82;147328;1146;104701;-71
2021/01/27 13:52:22;;;;;;;17.62;8.35;;;;;;;1.62;63.45;99654.82;147791;1147;104819;-72
2021/01/27 13:55:25;;;;;;;12.98;7.60;;;;;;;1.55;63.81;99643.92;147789;1147;104454;-70
2021/01/27 13:58:28;;;;;;;13.00;7.12;;;;;;;1.50;64.12;99651.28;147378;1147;104559;-71
2021/01/27 14:01:32;;;;;;;27.07;15.70;;;;;;;1.49;65.03;99654.88;147385;1147;104553;-72
2021/01/27 14:04:37;;;;;;;43.93;22.23;;;;;;;1.49;65.14;99653.08;147805;1147;104602;-70
2021/01/27 14:07:40;;;;;;;40.07;18.63;;;;;;;1.55;64.38;99657.90;147682;1146;104564;-73
2021/01/27 14:10:44;;;;;;;39.98;20.70;;;;;;;1.61;64.40;99653.16;147637;1147;104551;-72
2021/01/27 14:13:47;;;;;;;32.25;19.32;;;;;;;1.66;63.84;99656.30;147725;1147;104537;-71
2021/01/27 14:16:50;;;;;;;24.45;14.00;;;;;;;1.64;64.69;99659.04;147667;1146;104521;-71
2021/01/27 14:19:53;;;;;;;16.52;8.95;;;;;;;1.60;63.76;99672.50;147597;1147;104562;-72
2021/01/27 14:22:56;;;;;;;17.40;10.67;;;;;;;1.50;63.97;99662.67;147709;1147;104562;-71